Terminal Aerodrome Forecast
Issued by NWS

Home | Current Version | Previous Version | Text Only | Print | Product List | Glossary On
Versions: 1 2 3 4 5 6 7 8 9 10 11 12 13 14 15 16
000
FTUS43 KABR 211700
TAFATY
TAF
KATY 211731Z 2118/2218 29010KT P6SM SCT035
      TEMPO 2118/2120 BKN025
     FM220100 VRB03KT P6SM SKC
     FM221000 VRB03KT 2SM BR SKC
     FM221400 36006KT P6SM BKN200=

USA.gov is the U.S. government's official web portal to all federal, state and local government web resources and services.